createdAt,value
2022-08-03T00:01:26.160Z,26.21
2022-08-03T00:03:27.695Z,26.35
2022-08-03T00:05:29.247Z,26.26
2022-08-03T00:07:30.756Z,25.95
2022-08-03T00:09:35.483Z,25.84
2022-08-03T00:11:37.689Z,25.69
2022-08-03T00:13:39.199Z,25.67
2022-08-03T00:15:42.267Z,25.65
2022-08-03T00:17:53.727Z,25.69
2022-08-03T00:19:55.486Z,25.66
2022-08-03T00:21:57.137Z,25.88
2022-08-03T00:23:58.652Z,25.72
2022-08-03T00:26:00.176Z,25.70
2022-08-03T00:28:01.916Z,25.69
2022-08-03T00:30:03.808Z,25.67
2022-08-03T00:32:06.900Z,25.73
2022-08-03T00:34:12.599Z,25.51
2022-08-03T00:36:14.179Z,25.43
2022-08-03T00:38:16.893Z,25.63
2022-08-03T00:40:19.080Z,25.58
2022-08-03T00:42:20.600Z,25.67
2022-08-03T00:44:22.134Z,25.62
2022-08-03T00:46:23.660Z,25.46
2022-08-03T00:48:33.073Z,25.54
2022-08-03T00:50:35.999Z,25.51
2022-08-03T00:52:37.573Z,25.39
2022-08-03T00:54:39.130Z,25.52
2022-08-03T00:56:40.634Z,25.53
2022-08-03T00:59:01.859Z,25.56
2022-08-03T01:01:03.680Z,25.63
2022-08-03T01:03:05.339Z,25.65
2022-08-03T01:05:08.438Z,25.62
2022-08-03T01:07:11.465Z,25.59
2022-08-03T01:09:23.286Z,25.60
2022-08-03T01:11:26.847Z,25.67
2022-08-03T01:14:04.352Z,25.46
2022-08-03T01:15:53.477Z,25.47
2022-08-03T01:17:56.125Z,25.64
2022-08-03T01:19:59.590Z,25.42
2022-08-03T01:22:08.084Z,25.40
2022-08-03T01:24:24.471Z,25.53
2022-08-03T01:26:38.022Z,25.50
2022-08-03T01:28:47.333Z,25.42
2022-08-03T01:30:50.390Z,25.45
2022-08-03T01:33:01.131Z,25.23
2022-08-03T01:35:05.092Z,25.20
2022-08-03T01:37:06.621Z,25.09
2022-08-03T01:39:08.271Z,25.14
2022-08-03T01:41:12.290Z,25.07
2022-08-03T01:43:15.413Z,25.16
2022-08-03T01:45:36.895Z,25.18
2022-08-03T01:47:39.795Z,25.08
2022-08-03T01:49:43.507Z,25.15
2022-08-03T01:52:04.367Z,25.14
2022-08-03T01:54:06.737Z,25.21
2022-08-03T01:56:08.257Z,25.08
2022-08-03T01:58:09.776Z,25.05
2022-08-03T02:00:11.790Z,25.03
2022-08-03T02:02:29.746Z,24.75
2022-08-03T02:04:36.487Z,24.88
2022-08-03T02:06:55.693Z,24.95
2022-08-03T02:08:59.672Z,24.92
2022-08-03T02:11:01.167Z,24.88
2022-08-03T02:13:03.896Z,24.63
2022-08-03T02:15:05.939Z,24.44
2022-08-03T02:17:07.604Z,24.67
2022-08-03T02:19:09.134Z,24.65
2022-08-03T02:21:12.020Z,24.51
2022-08-03T02:23:33.518Z,24.56
2022-08-03T02:25:39.060Z,24.70
2022-08-03T02:27:43.950Z,24.63
2022-08-03T02:29:46.264Z,24.76
2022-08-03T02:31:47.864Z,24.62
2022-08-03T02:33:53.539Z,24.38
2022-08-03T02:35:55.072Z,24.33
2022-08-03T02:37:58.369Z,24.54
2022-08-03T02:40:01.534Z,24.63
2022-08-03T02:42:03.260Z,24.50
2022-08-03T02:44:07.877Z,24.69
2022-08-03T02:46:09.416Z,24.59
2022-08-03T02:48:10.942Z,24.65
2022-08-03T02:50:13.073Z,24.63
2022-08-03T02:52:15.997Z,24.58
2022-08-03T02:54:20.194Z,24.51
2022-08-03T02:56:21.817Z,24.49
2022-08-03T02:58:23.430Z,24.63
2022-08-03T03:00:31.873Z,24.69
2022-08-03T03:02:33.494Z,24.66
2022-08-03T03:04:35.014Z,24.73
2022-08-03T03:06:37.867Z,24.50
2022-08-03T03:08:41.289Z,24.35
2022-08-03T03:10:44.572Z,24.28
2022-08-03T03:12:46.099Z,24.48
2022-08-03T03:14:47.665Z,24.50
2022-08-03T03:16:50.717Z,24.42
2022-08-03T03:18:53.537Z,24.41
2022-08-03T03:20:55.050Z,24.31
2022-08-03T03:22:56.634Z,24.27
2022-08-03T03:24:58.163Z,24.30
2022-08-03T03:27:01.160Z,24.22
2022-08-03T03:29:02.717Z,24.15
2022-08-03T03:31:04.347Z,24.07
2022-08-03T03:33:05.860Z,23.99
2022-08-03T03:35:07.959Z,23.97
2022-08-03T03:37:09.490Z,24.04
2022-08-03T03:39:15.645Z,24.00
2022-08-03T03:41:17.588Z,24.02
2022-08-03T03:43:20.484Z,23.96
2022-08-03T03:45:21.995Z,24.13
2022-08-03T03:47:32.841Z,24.08
2022-08-03T03:49:34.636Z,24.14
2022-08-03T03:51:36.147Z,24.19
2022-08-03T03:53:37.662Z,24.27
2022-08-03T03:55:57.782Z,24.22
2022-08-03T03:58:01.248Z,24.30
2022-08-03T04:00:04.734Z,24.38
2022-08-03T04:02:06.333Z,24.20
2022-08-03T04:04:07.964Z,24.24
2022-08-03T04:06:09.616Z,24.33
2022-08-03T04:08:12.781Z,24.15
2022-08-03T04:10:16.516Z,24.44
2022-08-03T04:12:18.170Z,24.24
2022-08-03T04:14:20.879Z,24.64
2022-08-03T04:16:24.096Z,24.80
2022-08-03T04:18:25.686Z,24.89
2022-08-03T04:20:28.267Z,24.86
2022-08-03T04:22:29.776Z,24.88
2022-08-03T04:24:32.976Z,24.93
2022-08-03T04:26:35.692Z,24.77
2022-08-03T04:28:37.679Z,24.56
2022-08-03T04:30:39.191Z,24.54
2022-08-03T04:32:45.846Z,24.47
2022-08-03T04:34:47.584Z,24.44
2022-08-03T04:36:50.012Z,24.43
2022-08-03T04:38:55.481Z,24.45
2022-08-03T04:40:57.034Z,24.41
2022-08-03T04:42:58.664Z,24.47
2022-08-03T04:45:01.678Z,24.56
2022-08-03T04:47:03.487Z,24.48
2022-08-03T04:49:06.715Z,24.46
2022-08-03T04:51:08.292Z,24.57
2022-08-03T04:53:09.795Z,24.57
2022-08-03T04:55:11.306Z,24.54
2022-08-03T04:57:22.209Z,24.61
2022-08-03T04:59:25.013Z,24.69
2022-08-03T05:01:26.572Z,24.86
2022-08-03T05:03:28.094Z,24.90
2022-08-03T05:05:48.892Z,24.80
2022-08-03T05:07:51.889Z,24.69
2022-08-03T05:10:01.729Z,24.60
2022-08-03T05:12:05.330Z,24.62
2022-08-03T05:14:06.874Z,24.64
2022-08-03T05:16:08.394Z,24.77
2022-08-03T05:18:13.887Z,24.86
2022-08-03T05:20:18.798Z,24.94
2022-08-03T05:22:22.063Z,24.96
2022-08-03T05:24:23.559Z,25.15
2022-08-03T05:26:25.085Z,25.17
2022-08-03T05:28:28.292Z,25.26
2022-08-03T05:30:33.882Z,25.23
2022-08-03T05:32:36.009Z,25.21
2022-08-03T05:34:37.674Z,25.26
2022-08-03T05:36:39.178Z,25.32
2022-08-03T05:38:42.100Z,25.51
2022-08-03T05:40:56.824Z,25.72
2022-08-03T05:42:59.385Z,25.71
2022-08-03T05:45:03.644Z,26.03
2022-08-03T05:47:05.234Z,25.78
2022-08-03T05:49:06.870Z,26.18
2022-08-03T05:51:08.494Z,26.00
2022-08-03T05:53:09.991Z,25.76
2022-08-03T05:55:13.181Z,26.24
2022-08-03T05:57:14.779Z,26.30
2022-08-03T05:59:37.007Z,26.34
2022-08-03T06:01:38.009Z,26.58
2022-08-03T06:03:39.678Z,26.68
2022-08-03T06:05:43.325Z,26.97
2022-08-03T06:07:57.108Z,26.78
2022-08-03T06:10:36.673Z,26.76
2022-08-03T06:12:21.519Z,27.11
2022-08-03T06:14:23.016Z,26.95
2022-08-03T06:16:24.521Z,26.64
2022-08-03T06:18:26.018Z,26.89
2022-08-03T06:20:27.707Z,26.96
2022-08-03T06:22:29.254Z,27.17
2022-08-03T06:24:31.299Z,27.01
2022-08-03T06:26:32.845Z,26.88
2022-08-03T06:28:53.118Z,27.12
2022-08-03T06:30:55.443Z,27.13
2022-08-03T06:32:56.942Z,27.16
2022-08-03T06:34:58.466Z,27.53
2022-08-03T06:37:02.159Z,27.56
2022-08-03T06:39:04.152Z,27.98
2022-08-03T06:41:05.625Z,27.83
2022-08-03T06:43:10.718Z,27.85
2022-08-03T06:45:15.582Z,27.92
2022-08-03T06:47:17.122Z,28.00
2022-08-03T06:49:19.005Z,28.14
2022-08-03T06:51:21.211Z,28.30
2022-08-03T06:53:42.712Z,27.85
2022-08-03T06:55:44.240Z,28.30
2022-08-03T06:57:45.770Z,27.65
2022-08-03T07:00:10.467Z,28.11
2022-08-03T07:02:10.222Z,28.74
2022-08-03T07:04:11.775Z,28.55
2022-08-03T07:06:13.264Z,28.83
2022-08-03T07:08:14.814Z,28.79
2022-08-03T07:10:16.343Z,29.29
2022-08-03T07:12:18.172Z,29.30
2022-08-03T07:14:19.963Z,29.80
2022-08-03T07:16:21.439Z,29.13
2022-08-03T07:18:29.968Z,29.43
2022-08-03T07:20:32.686Z,29.71
2022-08-03T07:22:34.485Z,29.62
2022-08-03T07:24:36.093Z,30.07
2022-08-03T07:26:37.604Z,30.07
2022-08-03T07:28:39.124Z,30.27
2022-08-03T07:30:40.625Z,30.29
2022-08-03T07:32:50.387Z,30.57
2022-08-03T07:34:58.339Z,29.39
2022-08-03T07:37:01.995Z,29.41
2022-08-03T07:39:14.694Z,29.63
2022-08-03T07:41:19.451Z,29.86
2022-08-03T07:43:20.960Z,29.58
2022-08-03T07:45:22.476Z,30.38
2022-08-03T07:47:24.386Z,30.58
2022-08-03T07:49:25.960Z,30.38
2022-08-03T07:51:28.896Z,30.33
2022-08-03T07:53:30.398Z,30.93
2022-08-03T07:55:31.890Z,31.28
2022-08-03T07:57:33.415Z,30.74
2022-08-03T08:00:01.567Z,31.46
2022-08-03T08:01:56.416Z,31.57
2022-08-03T08:03:57.907Z,31.83
2022-08-03T08:05:59.435Z,32.24
2022-08-03T08:08:02.525Z,32.29
2022-08-03T08:10:04.411Z,32.49
2022-08-03T08:12:06.364Z,32.02
2022-08-03T08:14:16.948Z,32.52
2022-08-03T08:16:18.675Z,32.63
2022-08-03T08:18:20.219Z,33.06
2022-08-03T08:20:27.706Z,32.87
2022-08-03T08:22:31.496Z,33.09
2022-08-03T08:24:34.704Z,33.41
2022-08-03T08:26:38.423Z,33.45
2022-08-03T08:28:39.965Z,33.65
2022-08-03T08:30:41.551Z,33.64
2022-08-03T08:32:43.041Z,33.58
2022-08-03T08:34:44.549Z,33.65
2022-08-03T08:36:46.024Z,33.55
2022-08-03T08:38:49.177Z,33.33
2022-08-03T08:40:54.447Z,33.68
2022-08-03T08:42:58.876Z,33.84
2022-08-03T08:45:00.649Z,34.09
2022-08-03T08:47:02.684Z,34.05
2022-08-03T08:49:04.852Z,34.20
2022-08-03T08:51:07.289Z,34.49
2022-08-03T08:53:10.710Z,34.40
2022-08-03T08:55:19.851Z,33.92
2022-08-03T08:57:41.856Z,34.42
2022-08-03T08:59:48.454Z,34.36
2022-08-03T09:01:51.229Z,34.66
2022-08-03T09:03:52.762Z,35.12
2022-08-03T09:05:56.226Z,34.60
2022-08-03T09:07:58.114Z,35.04
2022-08-03T09:10:11.418Z,35.24
2022-08-03T09:12:39.179Z,35.23
2022-08-03T09:14:49.760Z,34.93
2022-08-03T09:16:59.733Z,34.68
2022-08-03T09:19:11.655Z,34.43
2022-08-03T09:21:31.795Z,35.10
2022-08-03T09:23:59.550Z,35.66
2022-08-03T09:26:02.847Z,35.41
2022-08-03T09:28:05.416Z,35.51
2022-08-03T09:30:33.767Z,35.15
2022-08-03T09:32:33.943Z,35.41
2022-08-03T09:34:36.317Z,35.56
2022-08-03T09:36:38.468Z,34.80
2022-08-03T09:38:39.975Z,35.47
2022-08-03T09:40:41.765Z,35.79
2022-08-03T09:42:46.599Z,35.90
2022-08-03T09:44:48.661Z,35.73
2022-08-03T09:46:52.578Z,35.48
2022-08-03T09:48:54.179Z,35.67
2022-08-03T09:50:57.039Z,36.04
2022-08-03T09:53:01.740Z,36.47
2022-08-03T09:55:07.630Z,36.35
2022-08-03T09:57:29.251Z,36.29
2022-08-03T09:59:31.848Z,36.38
2022-08-03T10:01:33.506Z,36.04
2022-08-03T10:04:02.778Z,36.52
2022-08-03T10:06:00.078Z,36.37
2022-08-03T10:08:10.465Z,36.02
2022-08-03T10:10:30.520Z,36.17
2022-08-03T10:12:33.433Z,36.95
2022-08-03T10:14:36.902Z,37.08
2022-08-03T10:16:38.808Z,37.30
2022-08-03T10:18:41.700Z,37.56
2022-08-03T10:20:43.872Z,36.84
2022-08-03T10:22:45.366Z,37.11
2022-08-03T10:24:49.728Z,36.31
2022-08-03T10:26:51.211Z,35.75
2022-08-03T10:28:53.323Z,36.18
2022-08-03T10:30:54.867Z,35.63
2022-08-03T10:32:56.618Z,35.69
2022-08-03T10:35:20.443Z,36.12
2022-08-03T10:37:22.716Z,36.68
2022-08-03T10:39:24.562Z,36.84
2022-08-03T10:41:26.643Z,36.30
2022-08-03T10:43:28.925Z,36.77
2022-08-03T10:45:30.531Z,36.76
2022-08-03T10:47:32.252Z,36.76
2022-08-03T10:49:35.489Z,36.80
2022-08-03T10:51:38.663Z,37.33
2022-08-03T10:53:40.590Z,37.62
2022-08-03T10:55:46.001Z,37.95
2022-08-03T10:57:49.801Z,37.57
2022-08-03T10:59:56.803Z,37.74
2022-08-03T11:02:01.021Z,36.76
2022-08-03T11:04:17.063Z,37.42
2022-08-03T11:06:19.789Z,37.62
2022-08-03T11:08:30.180Z,37.56
2022-08-03T11:10:33.053Z,37.65
2022-08-03T11:12:34.667Z,38.11
2022-08-03T11:14:45.905Z,37.84
2022-08-03T11:16:49.095Z,38.21
2022-08-03T11:18:57.239Z,38.21
2022-08-03T11:20:59.551Z,37.85
2022-08-03T11:23:01.022Z,37.35
2022-08-03T11:25:02.532Z,37.95
2022-08-03T11:27:17.863Z,38.28
2022-08-03T11:29:28.936Z,38.01
2022-08-03T11:31:50.755Z,38.14
2022-08-03T11:34:03.116Z,38.11
2022-08-03T11:36:04.941Z,37.18
2022-08-03T11:38:07.126Z,37.19
2022-08-03T11:40:08.993Z,37.53
2022-08-03T11:42:29.229Z,37.93
2022-08-03T11:44:41.197Z,38.60
2022-08-03T11:46:42.687Z,38.37
2022-08-03T11:48:44.683Z,37.60
2022-08-03T11:50:46.161Z,36.81
2022-08-03T11:52:48.563Z,36.82
2022-08-03T11:54:50.758Z,37.37
2022-08-03T11:56:58.344Z,38.05
2022-08-03T11:59:19.012Z,37.92
2022-08-03T12:01:23.296Z,37.75
2022-08-03T12:03:25.136Z,37.74
2022-08-03T12:05:51.932Z,37.56
2022-08-03T12:08:04.123Z,37.95
2022-08-03T12:10:08.514Z,37.52
2022-08-03T12:12:10.012Z,38.09
2022-08-03T12:14:48.686Z,38.38
2022-08-03T12:16:38.088Z,38.32
2022-08-03T12:18:39.603Z,38.42
2022-08-03T12:20:41.352Z,38.68
2022-08-03T12:22:43.086Z,37.96
2022-08-03T12:24:46.772Z,38.06
2022-08-03T12:26:58.195Z,38.23
2022-08-03T12:29:01.184Z,38.57
2022-08-03T12:31:03.882Z,38.94
2022-08-03T12:33:16.494Z,39.13
2022-08-03T12:35:24.170Z,39.35
2022-08-03T12:37:25.889Z,38.67
2022-08-03T12:39:27.656Z,38.39
2022-08-03T12:41:30.132Z,37.71
2022-08-03T12:43:36.688Z,37.56
2022-08-03T12:45:41.254Z,37.59
2022-08-03T12:47:49.570Z,37.64
2022-08-03T12:49:53.037Z,38.11
2022-08-03T12:51:58.367Z,38.38
2022-08-03T12:53:59.844Z,38.61
2022-08-03T12:56:05.680Z,38.70
2022-08-03T12:58:07.987Z,38.83
2022-08-03T13:00:29.043Z,38.93
2022-08-03T13:02:31.338Z,39.01
2022-08-03T13:04:34.476Z,39.46
2022-08-03T13:06:37.427Z,39.57
2022-08-03T13:08:38.964Z,39.44
2022-08-03T13:10:40.450Z,39.12
2022-08-03T13:12:48.210Z,38.88
2022-08-03T13:14:50.228Z,39.28
2022-08-03T13:16:51.823Z,40.93
2022-08-03T13:18:53.356Z,43.26
2022-08-03T13:20:54.880Z,45.38
2022-08-03T13:23:00.827Z,47.25
2022-08-03T13:25:03.656Z,47.72
2022-08-03T13:28:02.422Z,47.39
2022-08-03T13:29:26.723Z,47.25
2022-08-03T13:31:28.227Z,47.79
2022-08-03T13:33:30.138Z,46.88
2022-08-03T13:35:31.636Z,46.66
2022-08-03T13:37:33.179Z,47.40
2022-08-03T13:39:57.311Z,46.80
2022-08-03T13:42:00.729Z,46.87
2022-08-03T13:44:26.691Z,48.23
2022-08-03T13:46:23.828Z,48.11
2022-08-03T13:48:37.153Z,48.98
2022-08-03T13:50:42.943Z,49.80
2022-08-03T13:52:44.737Z,49.71
2022-08-03T13:54:47.703Z,50.16
2022-08-03T13:56:49.341Z,49.90
2022-08-03T13:58:50.854Z,51.00
2022-08-03T14:00:52.352Z,51.86
2022-08-03T14:02:57.256Z,52.66
2022-08-03T14:05:03.887Z,51.32
2022-08-03T14:07:05.531Z,51.73
2022-08-03T14:09:07.172Z,50.44
2022-08-03T14:11:10.051Z,51.99
2022-08-03T14:13:12.017Z,53.17
2022-08-03T14:15:13.511Z,53.45
2022-08-03T14:17:16.311Z,52.51
2022-08-03T14:19:18.205Z,54.41
2022-08-03T14:21:26.510Z,53.46
2022-08-03T14:23:28.023Z,54.51
2022-08-03T14:25:29.599Z,54.16
2022-08-03T14:27:46.349Z,54.98
2022-08-03T14:29:47.909Z,56.50
2022-08-03T14:32:11.160Z,56.06
2022-08-03T14:34:11.047Z,54.07
2022-08-03T14:36:12.553Z,52.23
2022-08-03T14:38:14.094Z,51.58
2022-08-03T14:40:15.682Z,50.16
2022-08-03T14:42:17.212Z,54.63
2022-08-03T14:44:20.198Z,54.54
2022-08-03T14:46:21.712Z,54.96
2022-08-03T14:50:34.122Z,55.32
2022-08-03T14:50:50.668Z,55.50
2022-08-03T14:52:52.412Z,56.05
2022-08-03T14:54:53.933Z,55.15
2022-08-03T14:56:55.433Z,56.63
2022-08-03T14:58:57.145Z,56.17
2022-08-03T15:01:00.028Z,57.05
2022-08-03T15:03:01.679Z,55.08
2022-08-03T15:05:03.334Z,54.42
2022-08-03T15:07:04.900Z,52.99
2022-08-03T15:09:21.170Z,54.02
2022-08-03T15:11:24.740Z,50.63
2022-08-03T15:13:26.398Z,52.46
2022-08-03T15:15:28.025Z,53.69
2022-08-03T15:17:30.951Z,54.12
2022-08-03T15:20:00.509Z,55.69
2022-08-03T15:21:55.924Z,55.67
2022-08-03T15:23:57.452Z,54.38
2022-08-03T15:26:30.292Z,56.66
2022-08-03T15:28:20.547Z,55.36
2022-08-03T15:30:22.092Z,56.38
2022-08-03T15:32:23.611Z,56.54
2022-08-03T15:34:26.534Z,57.55
2022-08-03T15:36:28.040Z,57.35
2022-08-03T15:38:29.561Z,57.52
2022-08-03T15:40:31.087Z,55.51
2022-08-03T15:42:32.897Z,55.74
2022-08-03T15:44:34.409Z,56.99
2022-08-03T15:46:35.949Z,55.06
2022-08-03T15:48:37.534Z,54.85
2022-08-03T15:50:40.588Z,56.35
2022-08-03T15:52:42.181Z,55.15
2022-08-03T15:54:43.753Z,54.28
2022-08-03T15:56:45.261Z,53.23
2022-08-03T15:59:09.218Z,54.59
2022-08-03T16:01:08.321Z,56.23
2022-08-03T16:03:09.925Z,57.21
2022-08-03T16:05:11.450Z,56.42
2022-08-03T16:07:14.399Z,56.94
2022-08-03T16:09:24.373Z,58.33
2022-08-03T16:11:37.581Z,58.04
2022-08-03T16:14:13.375Z,57.37
2022-08-03T16:16:00.600Z,56.25
2022-08-03T16:18:02.129Z,54.45
2022-08-03T16:20:10.474Z,52.58
2022-08-03T16:22:14.531Z,49.99
2022-08-03T16:24:17.451Z,52.75
2022-08-03T16:26:21.494Z,53.63
2022-08-03T16:28:23.005Z,52.11
2022-08-03T16:30:24.616Z,50.04
2022-08-03T16:32:26.289Z,52.10
2022-08-03T16:34:27.836Z,52.29
2022-08-03T16:36:34.813Z,51.89
2022-08-03T16:38:37.975Z,52.96
2022-08-03T16:40:39.483Z,51.13
2022-08-03T16:42:41.019Z,50.69
2022-08-03T16:44:42.510Z,51.61
2022-08-03T16:46:44.067Z,54.46
2022-08-03T16:48:45.601Z,55.58
2022-08-03T16:50:47.596Z,52.30
2022-08-03T16:52:49.266Z,55.09
2022-08-03T16:54:53.561Z,55.11
2022-08-03T16:56:55.810Z,55.27
2022-08-03T16:58:58.492Z,55.10
2022-08-03T17:01:00.021Z,55.33
2022-08-03T17:03:04.053Z,53.24
2022-08-03T17:05:06.554Z,53.55
2022-08-03T17:07:09.562Z,53.95
2022-08-03T17:09:14.941Z,49.42
2022-08-03T17:11:21.298Z,47.03
2022-08-03T17:13:27.623Z,45.48
2022-08-03T17:16:01.467Z,45.04
2022-08-03T17:18:04.868Z,43.67
2022-08-03T17:20:09.684Z,42.94
2022-08-03T17:22:12.193Z,42.68
2022-08-03T17:24:14.663Z,42.18
2022-08-03T17:26:22.640Z,41.51
2022-08-03T17:28:48.124Z,42.05
2022-08-03T17:30:53.915Z,41.73
2022-08-03T17:32:57.985Z,42.85
2022-08-03T17:34:59.694Z,45.06
2022-08-03T17:37:04.117Z,47.56
2022-08-03T17:39:06.648Z,49.83
2022-08-03T17:41:10.541Z,49.33
2022-08-03T17:44:12.957Z,45.72
2022-08-03T17:45:52.237Z,43.97
2022-08-03T17:47:57.358Z,42.98
2022-08-03T17:49:59.538Z,43.11
2022-08-03T17:54:24.476Z,43.67
2022-08-03T17:56:42.669Z,43.09
2022-08-03T17:58:51.040Z,42.56
2022-08-03T18:00:54.165Z,41.98
2022-08-03T18:03:04.108Z,41.62
2022-08-03T18:05:16.629Z,41.13
2022-08-03T18:07:18.777Z,41.43
2022-08-03T18:10:03.614Z,42.56
2022-08-03T18:11:42.906Z,44.01
2022-08-03T18:13:44.889Z,44.34
2022-08-03T18:16:01.007Z,44.63
2022-08-03T18:18:10.410Z,44.68
2022-08-03T18:20:34.156Z,46.50
2022-08-03T18:22:40.229Z,44.92
2022-08-03T18:24:42.399Z,43.06
2022-08-03T18:26:48.919Z,41.68
2022-08-03T18:28:51.919Z,41.16
2022-08-03T18:30:55.210Z,40.55
2022-08-03T18:33:00.796Z,40.27
2022-08-03T18:35:19.797Z,39.90
2022-08-03T18:37:26.322Z,39.66
2022-08-03T18:39:27.891Z,39.39
2022-08-03T18:41:32.200Z,39.07
2022-08-03T18:43:46.260Z,38.95
2022-08-03T18:45:55.772Z,38.78
2022-08-03T18:48:01.874Z,38.64
2022-08-03T18:50:06.077Z,38.56
2022-08-03T18:52:26.991Z,38.59
2022-08-03T18:54:45.876Z,38.59
2022-08-03T18:56:52.731Z,38.70
2022-08-03T18:58:55.834Z,38.71
2022-08-03T19:01:04.485Z,39.13
2022-08-03T19:03:20.599Z,39.82
2022-08-03T19:05:24.003Z,39.56
2022-08-03T19:07:47.642Z,38.90
2022-08-03T19:10:00.417Z,38.46
2022-08-03T19:14:29.863Z,37.90
2022-08-03T19:16:34.205Z,37.76
2022-08-03T19:18:37.388Z,37.53
2022-08-03T19:20:38.894Z,37.52
2022-08-03T19:22:40.574Z,37.38
2022-08-03T19:24:48.173Z,37.15
2022-08-03T19:26:52.147Z,37.01
2022-08-03T19:28:54.033Z,37.02
2022-08-03T19:30:56.735Z,36.86
2022-08-03T19:33:00.683Z,36.87
2022-08-03T19:35:04.327Z,36.67
2022-08-03T19:37:06.282Z,36.57
2022-08-03T19:39:09.218Z,36.59
2022-08-03T19:41:10.897Z,36.31
2022-08-03T19:43:16.903Z,36.38
2022-08-03T19:45:21.545Z,36.33
2022-08-03T19:47:26.309Z,36.14
2022-08-03T19:50:00.004Z,35.99
2022-08-03T19:52:01.514Z,35.89
2022-08-03T19:54:04.873Z,35.85
2022-08-03T19:56:06.468Z,35.76
2022-08-03T19:58:08.454Z,35.72
2022-08-03T20:00:19.547Z,35.66
2022-08-03T20:02:26.497Z,35.58
2022-08-03T20:04:29.186Z,35.59
2022-08-03T20:06:31.304Z,35.53
2022-08-03T20:08:34.172Z,35.47
2022-08-03T20:10:36.441Z,35.47
2022-08-03T20:12:39.385Z,35.42
2022-08-03T20:14:41.128Z,35.45
2022-08-03T20:16:43.157Z,35.36
2022-08-03T20:18:44.792Z,35.25
2022-08-03T20:20:46.408Z,35.35
2022-08-03T20:22:48.661Z,35.26
2022-08-03T20:24:53.055Z,35.19
2022-08-03T20:26:55.378Z,35.13
2022-08-03T20:29:01.387Z,35.12
2022-08-03T20:31:11.656Z,35.07
2022-08-03T20:33:19.011Z,34.96
2022-08-03T20:35:21.032Z,34.91
2022-08-03T20:37:22.573Z,34.91
2022-08-03T20:39:24.925Z,34.88
2022-08-03T20:41:30.583Z,34.93
2022-08-03T20:43:32.287Z,34.91
2022-08-03T20:46:00.680Z,34.89
2022-08-03T20:47:55.267Z,34.54
2022-08-03T20:49:56.804Z,34.50
2022-08-03T20:51:59.565Z,34.45
2022-08-03T20:54:05.062Z,34.12
2022-08-03T20:56:19.673Z,34.02
2022-08-03T20:58:23.895Z,33.72
2022-08-03T21:00:25.661Z,33.38
2022-08-03T21:02:31.198Z,33.25
2022-08-03T21:04:32.878Z,33.11
2022-08-03T21:06:35.431Z,32.94
2022-08-03T21:08:37.908Z,32.63
2022-08-03T21:10:48.930Z,32.34
2022-08-03T21:12:51.513Z,32.19
2022-08-03T21:13:01.459Z,38.19
2022-08-03T21:13:04.308Z,43.52
2022-08-03T21:14:56.685Z,32.32
2022-08-03T21:16:58.210Z,32.18
2022-08-03T21:19:00.000Z,32.31
2022-08-03T21:21:01.530Z,32.21
2022-08-03T21:23:03.076Z,32.06
2022-08-03T21:25:05.536Z,31.98
2022-08-03T21:27:07.114Z,31.96
2022-08-03T21:29:08.790Z,31.79
2022-08-03T21:31:11.688Z,31.45
2022-08-03T21:33:13.587Z,31.22
2022-08-03T21:35:15.111Z,31.10
2022-08-03T21:37:16.612Z,30.99
2022-08-03T21:39:18.189Z,30.83
2022-08-03T21:41:19.902Z,30.72
2022-08-03T21:43:21.430Z,30.45
2022-08-03T21:45:22.933Z,30.51
2022-08-03T21:47:25.901Z,30.54
2022-08-03T21:50:07.565Z,30.75
2022-08-03T21:51:49.649Z,30.32
2022-08-03T21:54:02.659Z,30.51
2022-08-03T21:56:07.124Z,30.24
2022-08-03T21:58:08.682Z,30.00
2022-08-03T22:00:12.357Z,30.46
2022-08-03T22:02:24.230Z,30.31
2022-08-03T22:04:55.810Z,30.44
2022-08-03T22:06:49.304Z,30.41
2022-08-03T22:08:51.302Z,30.09
2022-08-03T22:10:52.796Z,30.01
2022-08-03T22:12:54.459Z,30.22
2022-08-03T22:15:00.784Z,30.29
2022-08-03T22:17:03.407Z,30.02
2022-08-03T22:19:08.006Z,29.80
2022-08-03T22:21:11.484Z,29.96
2022-08-03T22:23:13.056Z,29.74
2022-08-03T22:25:15.330Z,29.35
2022-08-03T22:27:17.620Z,29.29
2022-08-03T22:29:19.170Z,29.47
2022-08-03T22:31:57.143Z,29.21
2022-08-03T22:33:42.563Z,29.32
2022-08-03T22:35:47.927Z,29.35
2022-08-03T22:37:52.251Z,29.23
2022-08-03T22:39:54.386Z,29.20
2022-08-03T22:41:56.431Z,29.37
2022-08-03T22:43:58.231Z,29.56
2022-08-03T22:46:11.514Z,29.06
2022-08-03T22:48:16.021Z,29.47
2022-08-03T22:50:32.323Z,29.48
2022-08-03T22:52:36.291Z,29.13
2022-08-03T22:54:39.318Z,29.21
2022-08-03T22:56:40.853Z,29.28
2022-08-03T22:58:42.331Z,29.40
2022-08-03T23:00:45.926Z,28.86
2022-08-03T23:02:54.740Z,29.11
2022-08-03T23:04:57.237Z,29.16
2022-08-03T23:06:59.879Z,29.20
2022-08-03T23:09:01.803Z,29.06
2022-08-03T23:11:06.101Z,29.16
2022-08-03T23:13:08.006Z,29.08
2022-08-03T23:15:10.457Z,29.10
2022-08-03T23:17:12.121Z,28.92
2022-08-03T23:19:17.032Z,28.81
2022-08-03T23:21:52.852Z,28.85
2022-08-03T23:23:49.261Z,29.13
2022-08-03T23:25:51.891Z,28.82
2022-08-03T23:28:04.862Z,28.74
2022-08-03T23:30:08.194Z,29.05
2022-08-03T23:32:09.822Z,28.86
2022-08-03T23:34:16.398Z,28.63
2022-08-03T23:36:30.237Z,28.82
2022-08-03T23:38:34.684Z,28.82
2022-08-03T23:40:36.178Z,28.73
2022-08-03T23:42:37.712Z,28.73
2022-08-03T23:44:40.902Z,28.84
2022-08-03T23:46:42.409Z,28.85
2022-08-03T23:48:44.109Z,28.56
2022-08-03T23:50:46.076Z,28.54
2022-08-03T23:52:51.841Z,28.65
2022-08-03T23:54:57.339Z,28.67
2022-08-03T23:57:00.071Z,28.53
2022-08-03T23:59:04.035Z,28.67
